Extrem niedrige Temperatur Gültig von: 04-04-2020 23:00 bis: 05-04-2020 08:00 Warnung für: Extrem niedrige Temperatur Gefahrenstufe: Gelb info button

Besuchen Sie unsere anderen Wetter Stationen:

Template documentation
and downloads

And another site



METAR-Meldungen aus der Umgebung


Warning: A non-numeric value encountered in /is/htdocs/wp10906056_0YHW7Q9XB7/www/weather28/metar/metarDisplay.php on line 166

Warning: A non-numeric value encountered in /is/htdocs/wp10906056_0YHW7Q9XB7/www/weather28/metar/metarDisplay.php on line 166

Warning: A non-numeric value encountered in /is/htdocs/wp10906056_0YHW7Q9XB7/www/weather28/metar/metarDisplay.php on line 166

Warning: A non-numeric value encountered in /is/htdocs/wp10906056_0YHW7Q9XB7/www/weather28/metar/metarDisplay.php on line 166

Warning: A non-numeric value encountered in /is/htdocs/wp10906056_0YHW7Q9XB7/www/weather28/metar/metarDisplay.php on line 166

Warning: A non-numeric value encountered in /is/htdocs/wp10906056_0YHW7Q9XB7/www/weather28/metar/metarDisplay.php on line 166
   
EHVK - Volkel Rnlafb, Netherlands
Entfernung von der Station bis: SW 18 km
Aktualisierung: 05-04-2020 05:25
Klar  
Klar  
   Wind: Osten 9.3 km/h
Wind: Osten 9.3 km/h
Temperatur: 3°C
Gefühlt: 1°C
Taupunkt: -1°C
Luftfeuchte: 75%
Luftdruck: 1022 hPa
Bewölkt: Klar
Sichtbarkeit: More than 10 km
Bewölkung: Klar
EHVK 050325Z AUTO 09005KT 9999 NCD 03/M01 Q1022 BLU
EDLV - Niederrhein, Germany
Entfernung von der Station bis: SO 25 km
Aktualisierung: 03-04-2020 15:20
Nicht aktuell
Klar  
Klar  
   Wind: WNW 20.4 km/h
Wind: WNW 20.4 km/h
Temperatur: 10°C
Gefühlt: 7°C
Taupunkt: 2°C
Luftfeuchte: 58%
Luftdruck: 1016 hPa
Sichtbarkeit: More than 10 km
Bewölkung: Klar
EDLV 031320Z 30011KT 280V340 CAVOK 10/02 Q1016
EHDL - Deelen Rnlafb, Netherlands
Entfernung von der Station bis: N 35 km
Aktualisierung: 05-04-2020 05:25
Klar  
Klar  
   Wind: OSO 11.1 km/h
Wind: OSO 11.1 km/h
Temperatur: 5°C
Gefühlt: 2°C
Taupunkt: -1°C
Luftfeuchte: 66%
Luftdruck: 1023 hPa
Bewölkt: Klar
Sichtbarkeit: More than 10 km
Bewölkung: Klar
EHDL 050325Z AUTO 11006KT 070V190 9999 NCD 05/M01 Q1023 BLU
EHEH - Eindhoven Rnlafb, Netherlands
Entfernung von der Station bis: SW 48 km
Aktualisierung: 05-04-2020 05:25
Klar  
Klar  
   Wind: OSO 9.3 km/h
Wind: OSO 9.3 km/h
Temperatur: 7°C
Gefühlt: 5°C
Taupunkt: 0°C
Luftfeuchte: 61%
Luftdruck: 1022 hPa
Bewölkt: Klar
Sichtbarkeit: More than 10 km
Bewölkung: Klar
EHEH 050325Z AUTO 12005KT 090V150 9999 NCD 07/M00 Q1022 BLU 12005KT CAVOK
EHGR - Gilze-Rijen Rnla, Netherlands
Entfernung von der Station bis: WSW 70 km
Aktualisierung: 05-04-2020 05:25
Klar  
Klar  
   Wind: OSO 13 km/h
Wind: OSO 13 km/h
Temperatur: 6°C
Gefühlt: 3°C
Taupunkt: 0°C
Luftfeuchte: 66%
Luftdruck: 1022 hPa
Bewölkt: Klar
Sichtbarkeit: More than 10 km
Bewölkung: Klar
EHGR 050325Z AUTO 12007KT 9999 NCD 06/M00 Q1022 BLU
EBBL - Kleine-Brogel(Ba, Belgium
Entfernung von der Station bis: SSW 71 km
Aktualisierung: 05-04-2020 05:25
Klar  
Klar  
   Wind: Osten 5.6 km/h
Wind: Osten 5.6 km/h
Temperatur: 5°C
Gefühlt: 4°C
Taupunkt: -1°C
Luftfeuchte: 66%
Luftdruck: 1022 hPa
Bewölkt: Klar
Sichtbarkeit: More than 10 km
Bewölkung: Klar
EBBL 050325Z AUTO 08003KT 9999 NCD 05/M01 Q1022 BLU

Script entwickelt von  Saratoga-weather.org Angepasst für das Template von  Weerstation Leuven

Sie finden unser Wetter-Infos auch auf:

netzwerkwettercom

European Weather Network

WeatherCloud

Weather Underground

AWEKAS

Citizen Weather Observer Program (CWOP)

HAMweather, WeatherForYou, PWS Weather

Von uns verwendete Ausrüstung:

Wetterstation
Davis VP2

Davis VP2